createdAt,value
2018-07-15T00:00:26.603Z,97079.41
2018-07-15T00:02:55.818Z,97076.38
2018-07-15T00:05:24.979Z,97090.08
2018-07-15T00:07:54.187Z,97078.50
2018-07-15T00:10:23.359Z,97071.99
2018-07-15T00:12:52.559Z,97074.77
2018-07-15T00:15:21.826Z,97072.82
2018-07-15T00:17:51.027Z,97071.47
2018-07-15T00:20:20.488Z,97070.44
2018-07-15T00:22:49.683Z,97070.39
2018-07-15T00:25:18.994Z,97070.06
2018-07-15T00:27:48.311Z,97068.83
2018-07-15T00:30:17.552Z,97067.18
2018-07-15T00:32:47.007Z,97059.39
2018-07-15T00:35:16.503Z,97057.47
2018-07-15T00:37:45.720Z,97060.84
2018-07-15T00:40:14.908Z,97061.00
2018-07-15T00:42:44.111Z,97064.53
2018-07-15T00:45:13.267Z,97061.42
2018-07-15T00:47:42.480Z,97060.77
2018-07-15T00:50:11.676Z,97066.52
2018-07-15T00:52:40.877Z,97058.36
2018-07-15T00:55:10.134Z,97056.38
2018-07-15T00:57:39.246Z,97055.77
2018-07-15T01:00:08.660Z,97055.91
2018-07-15T01:02:37.870Z,97050.70
2018-07-15T01:05:07.090Z,97047.08
2018-07-15T01:07:36.526Z,97048.23
2018-07-15T01:10:05.759Z,97044.37
2018-07-15T01:12:34.943Z,97043.34
2018-07-15T01:15:04.345Z,97040.12
2018-07-15T01:17:33.547Z,97043.41
2018-07-15T01:20:02.979Z,97047.77
2018-07-15T01:22:32.151Z,97043.22
2018-07-15T01:25:01.332Z,97040.43
2018-07-15T01:27:30.535Z,97042.22
2018-07-15T01:30:00.043Z,97038.47
2018-07-15T01:32:29.214Z,97043.06
2018-07-15T01:34:58.379Z,97040.28
2018-07-15T01:37:27.567Z,97044.71
2018-07-15T01:39:56.743Z,97040.73
2018-07-15T01:42:26.199Z,97045.39
2018-07-15T01:44:55.367Z,97031.91
2018-07-15T01:47:24.551Z,97040.02
2018-07-15T01:49:53.745Z,97041.31
2018-07-15T01:52:23.143Z,97035.98
2018-07-15T01:54:52.315Z,97037.66
2018-07-15T01:57:21.527Z,97038.60
2018-07-15T01:59:51.711Z,97038.38
2018-07-15T02:02:21.019Z,97039.13
2018-07-15T02:04:50.192Z,97030.61
2018-07-15T02:07:22.174Z,97028.89
2018-07-15T02:09:51.474Z,97029.84
2018-07-15T02:12:21.151Z,97028.72
2018-07-15T02:14:50.446Z,97028.26
2018-07-15T02:17:19.644Z,97035.23
2018-07-15T02:19:48.824Z,97035.32
2018-07-15T02:22:18.007Z,97031.49
2018-07-15T02:24:47.188Z,97029.78
2018-07-15T02:27:17.063Z,97029.62
2018-07-15T02:29:46.270Z,97032.16
2018-07-15T02:32:15.588Z,97031.23
2018-07-15T02:34:44.805Z,97032.23
2018-07-15T02:37:14.823Z,97033.17
2018-07-15T02:39:43.995Z,97038.61
2018-07-15T02:42:13.193Z,97039.94
2018-07-15T02:44:42.631Z,97048.34
2018-07-15T02:47:11.803Z,97042.02
2018-07-15T02:49:40.976Z,97042.45
2018-07-15T02:52:10.159Z,97042.01
2018-07-15T02:54:39.619Z,97037.19
2018-07-15T02:57:09.124Z,97035.31
2018-07-15T02:59:38.677Z,97036.62
2018-07-15T03:02:07.843Z,97034.73
2018-07-15T03:04:37.011Z,97029.41
2018-07-15T03:07:06.578Z,97037.89
2018-07-15T03:09:35.759Z,97030.62
2018-07-15T03:12:04.936Z,97023.38
2018-07-15T03:14:34.121Z,97025.47
2018-07-15T03:17:03.600Z,97026.55
2018-07-15T03:19:33.171Z,97026.22
2018-07-15T03:22:02.458Z,97025.38
2018-07-15T03:24:31.652Z,97016.59
2018-07-15T03:27:00.816Z,97022.02
2018-07-15T03:29:29.999Z,97021.58
2018-07-15T03:31:59.188Z,97019.02
2018-07-15T03:34:28.675Z,97020.90
2018-07-15T03:36:57.811Z,97018.08
2018-07-15T03:39:27.023Z,97013.90
2018-07-15T03:41:56.630Z,97010.64
2018-07-15T03:44:25.827Z,97017.28
2018-07-15T03:46:55.019Z,97011.75
2018-07-15T03:49:24.239Z,97015.41
2018-07-15T03:51:53.434Z,97012.77
2018-07-15T03:54:22.668Z,97017.78
2018-07-15T03:56:52.187Z,97015.08
2018-07-15T03:59:21.407Z,97012.77
2018-07-15T04:01:50.585Z,97005.99
2018-07-15T04:04:19.920Z,97003.78
2018-07-15T04:06:49.094Z,97001.08
2018-07-15T04:09:18.547Z,97003.00
2018-07-15T04:11:47.719Z,97005.99
2018-07-15T04:14:17.643Z,97003.17
2018-07-15T04:16:46.835Z,96997.98
2018-07-15T04:19:16.055Z,96999.39
2018-07-15T04:21:45.236Z,97002.03
2018-07-15T04:24:14.558Z,96997.46
2018-07-15T04:26:43.731Z,96997.81
2018-07-15T04:29:12.974Z,96991.47
2018-07-15T04:31:42.175Z,97002.25
2018-07-15T04:34:11.722Z,96995.33
2018-07-15T04:36:40.888Z,97006.07
2018-07-15T04:39:10.549Z,97000.65
2018-07-15T04:41:39.723Z,97005.99
2018-07-15T04:44:08.932Z,97012.25
2018-07-15T04:46:38.183Z,97003.28
2018-07-15T04:49:07.730Z,97003.87
2018-07-15T04:51:36.939Z,96998.88
2018-07-15T04:54:06.463Z,96993.13
2018-07-15T04:56:35.651Z,96991.10
2018-07-15T04:59:04.882Z,96995.48
2018-07-15T05:01:37.862Z,96993.88
2018-07-15T05:04:07.287Z,96986.32
2018-07-15T05:06:36.772Z,96996.23
2018-07-15T05:09:06.887Z,96999.29
2018-07-15T05:11:36.605Z,97007.55
2018-07-15T05:14:05.978Z,96999.75
2018-07-15T05:16:35.235Z,97000.60
2018-07-15T05:19:04.499Z,97001.05
2018-07-15T05:21:33.672Z,96996.13
2018-07-15T05:24:02.888Z,96992.00
2018-07-15T05:26:32.067Z,96993.27
2018-07-15T05:29:01.263Z,96995.48
2018-07-15T05:31:30.472Z,96996.39
2018-07-15T05:33:59.683Z,96995.39
2018-07-15T05:36:28.895Z,96993.52
2018-07-15T05:38:58.134Z,96995.24
2018-07-15T05:41:27.435Z,96999.84
2018-07-15T05:43:56.831Z,97002.66
2018-07-15T05:46:26.003Z,97000.31
2018-07-15T05:48:55.239Z,97006.52
2018-07-15T05:51:24.816Z,97017.01
2018-07-15T05:53:54.015Z,97013.38
2018-07-15T05:56:23.223Z,97011.22
2018-07-15T05:58:52.430Z,97012.45
2018-07-15T06:01:21.639Z,97014.53
2018-07-15T06:03:50.844Z,97014.80
2018-07-15T06:06:20.091Z,97019.17
2018-07-15T06:08:49.287Z,97007.69
2018-07-15T06:11:18.583Z,97013.20
2018-07-15T06:13:47.755Z,97011.64
2018-07-15T06:16:17.251Z,97016.36
2018-07-15T06:18:46.443Z,97022.81
2018-07-15T06:21:15.888Z,97022.00
2018-07-15T06:23:45.100Z,97021.13
2018-07-15T06:26:14.319Z,97029.02
2018-07-15T06:28:43.803Z,97021.01
2018-07-15T06:31:13.283Z,97022.16
2018-07-15T06:33:42.695Z,97026.59
2018-07-15T06:36:11.912Z,97017.34
2018-07-15T06:38:41.113Z,97021.81
2018-07-15T06:41:10.322Z,97020.15
2018-07-15T06:43:39.491Z,97020.41
2018-07-15T06:46:08.695Z,97023.42
2018-07-15T06:48:37.887Z,97019.09
2018-07-15T06:51:07.239Z,97026.90
2018-07-15T06:53:36.426Z,97027.83
2018-07-15T06:56:05.712Z,97030.38
2018-07-15T06:58:34.875Z,97026.00
2018-07-15T07:01:04.199Z,97036.11
2018-07-15T07:03:33.379Z,97034.29
2018-07-15T07:06:02.808Z,97029.80
2018-07-15T07:08:32.011Z,97030.29
2018-07-15T07:11:01.221Z,97036.17
2018-07-15T07:13:30.408Z,97028.93
2018-07-15T07:16:00.035Z,97028.13
2018-07-15T07:18:29.232Z,97024.62
2018-07-15T07:20:58.443Z,97036.40
2018-07-15T07:23:27.755Z,97030.16
2018-07-15T07:25:56.939Z,97034.56
2018-07-15T07:28:26.270Z,97030.11
2018-07-15T07:30:55.612Z,97029.92
2018-07-15T07:33:24.791Z,97023.87
2018-07-15T07:35:53.992Z,97032.22
2018-07-15T07:38:23.166Z,97029.02
2018-07-15T07:40:52.743Z,97032.23
2018-07-15T07:43:21.919Z,97032.49
2018-07-15T07:45:51.144Z,97029.86
2018-07-15T07:48:20.328Z,97025.09
2018-07-15T07:50:49.595Z,97022.28
2018-07-15T07:53:18.787Z,97020.03
2018-07-15T07:55:47.970Z,97022.13
2018-07-15T07:58:17.303Z,97016.94
2018-07-15T08:00:47.333Z,97020.70
2018-07-15T08:03:16.508Z,97012.74
2018-07-15T08:05:45.695Z,97014.69
2018-07-15T08:08:14.878Z,97017.17
2018-07-15T08:10:44.080Z,97018.33
2018-07-15T08:13:13.331Z,97012.73
2018-07-15T08:15:42.527Z,97015.14
2018-07-15T08:18:11.827Z,97016.16
2018-07-15T08:20:41.355Z,97016.02
2018-07-15T08:23:10.858Z,97016.17
2018-07-15T08:25:40.060Z,97015.14
2018-07-15T08:28:09.300Z,97013.80
2018-07-15T08:30:49.575Z,97009.03
2018-07-15T08:33:18.815Z,97014.74
2018-07-15T08:35:47.995Z,97018.98
2018-07-15T08:38:17.447Z,97014.59
2018-07-15T08:40:47.043Z,97017.66
2018-07-15T08:43:16.149Z,97013.83
2018-07-15T08:45:45.337Z,97016.77
2018-07-15T08:48:14.515Z,97014.27
2018-07-15T08:50:43.701Z,97015.17
2018-07-15T08:53:13.119Z,97014.83
2018-07-15T08:55:42.792Z,97014.26
2018-07-15T08:58:12.101Z,97012.33
2018-07-15T09:00:41.528Z,97015.66
2018-07-15T09:03:10.790Z,97011.91
2018-07-15T09:05:40.197Z,97006.80
2018-07-15T09:08:09.416Z,97003.84
2018-07-15T09:10:38.925Z,97009.08
2018-07-15T09:13:08.543Z,96999.83
2018-07-15T09:15:37.719Z,97002.02
2018-07-15T09:18:06.931Z,97001.39
2018-07-15T09:20:36.371Z,97006.25
2018-07-15T09:23:05.675Z,97000.63
2018-07-15T09:25:34.860Z,96998.09
2018-07-15T09:28:04.177Z,97000.78
2018-07-15T09:30:33.492Z,96998.17
2018-07-15T09:33:02.670Z,96998.13
2018-07-15T09:35:31.898Z,96998.33
2018-07-15T09:38:01.051Z,96996.34
2018-07-15T09:40:30.227Z,96994.48
2018-07-15T09:42:59.472Z,96998.07
2018-07-15T09:45:28.638Z,96997.48
2018-07-15T09:47:57.875Z,96993.30
2018-07-15T09:50:27.499Z,96991.31
2018-07-15T09:52:56.691Z,96990.77
2018-07-15T09:55:26.099Z,96994.33
2018-07-15T09:57:55.291Z,96989.05
2018-07-15T10:00:29.804Z,96986.02
2018-07-15T10:02:59.027Z,96993.00
2018-07-15T10:05:28.210Z,96994.54
2018-07-15T10:07:57.411Z,96981.08
2018-07-15T10:10:26.633Z,96970.52
2018-07-15T10:12:58.782Z,96981.02
2018-07-15T10:15:28.555Z,96974.75
2018-07-15T10:17:57.767Z,96981.00
2018-07-15T10:20:26.939Z,96970.95
2018-07-15T10:22:56.334Z,96971.16
2018-07-15T10:25:25.629Z,96969.86
2018-07-15T10:27:54.843Z,96967.03
2018-07-15T10:30:24.112Z,96960.34
2018-07-15T10:32:53.531Z,96955.83
2018-07-15T10:35:22.719Z,96954.80
2018-07-15T10:37:52.676Z,96951.98
2018-07-15T10:40:21.867Z,96951.78
2018-07-15T10:42:51.078Z,96958.63
2018-07-15T10:45:20.370Z,96950.34
2018-07-15T10:47:49.870Z,96941.58
2018-07-15T10:50:22.596Z,96946.42
2018-07-15T10:52:53.181Z,96941.72
2018-07-15T10:55:23.033Z,96938.84
2018-07-15T10:57:52.298Z,96929.91
2018-07-15T11:00:21.403Z,96924.13
2018-07-15T11:02:50.623Z,96920.77
2018-07-15T11:05:19.999Z,96915.38
2018-07-15T11:07:49.203Z,96911.93
2018-07-15T11:10:18.368Z,96910.61
2018-07-15T11:12:47.632Z,96912.34
2018-07-15T11:15:16.803Z,96902.80
2018-07-15T11:17:45.993Z,96897.81
2018-07-15T11:20:15.325Z,96894.03
2018-07-15T11:22:44.514Z,96893.37
2018-07-15T11:25:13.715Z,96886.20
2018-07-15T11:27:42.915Z,96885.16
2018-07-15T11:30:12.111Z,96893.16
2018-07-15T11:32:41.424Z,96882.09
2018-07-15T11:35:11.403Z,96882.16
2018-07-15T11:37:40.633Z,96876.08
2018-07-15T11:40:09.958Z,96881.81
2018-07-15T11:42:39.189Z,96870.70
2018-07-15T11:45:08.383Z,96869.37
2018-07-15T11:47:37.602Z,96871.16
2018-07-15T11:50:07.019Z,96863.05
2018-07-15T11:52:37.134Z,96866.55
2018-07-15T11:55:07.312Z,96862.42
2018-07-15T11:57:36.836Z,96861.13
2018-07-15T12:00:06.998Z,96866.31
2018-07-15T12:02:36.267Z,96853.59
2018-07-15T12:05:05.659Z,96849.42
2018-07-15T12:07:36.463Z,96846.38
2018-07-15T12:10:06.052Z,96845.56
2018-07-15T12:12:35.563Z,96852.53
2018-07-15T12:15:04.999Z,96842.26
2018-07-15T12:17:34.198Z,96838.22
2018-07-15T12:20:03.457Z,96830.15
2018-07-15T12:22:33.326Z,96833.14
2018-07-15T12:25:02.605Z,96829.91
2018-07-15T12:27:32.167Z,96832.56
2018-07-15T12:30:01.340Z,96820.87
2018-07-15T12:32:30.652Z,96815.41
2018-07-15T12:34:59.851Z,96812.34
2018-07-15T12:37:29.103Z,96809.36
2018-07-15T12:39:58.353Z,96811.19
2018-07-15T12:42:27.539Z,96804.23
2018-07-15T12:44:56.747Z,96797.13
2018-07-15T12:47:25.960Z,96800.02
2018-07-15T12:49:55.158Z,96807.07
2018-07-15T12:52:24.527Z,96798.47
2018-07-15T12:54:54.195Z,96802.47
2018-07-15T12:57:23.399Z,96797.50
2018-07-15T12:59:53.744Z,96791.91
2018-07-15T13:02:23.203Z,96787.27
2018-07-15T13:04:52.388Z,96776.30
2018-07-15T13:07:21.579Z,96785.41
2018-07-15T13:09:50.759Z,96779.50
2018-07-15T13:12:19.975Z,96780.36
2018-07-15T13:14:49.164Z,96770.77
2018-07-15T13:17:18.426Z,96769.27
2018-07-15T13:19:48.126Z,96775.23
2018-07-15T13:22:17.306Z,96764.52
2018-07-15T13:24:46.700Z,96757.49
2018-07-15T13:27:16.579Z,96756.33
2018-07-15T13:29:46.398Z,96758.42
2018-07-15T13:32:15.507Z,96750.49
2018-07-15T13:34:44.719Z,96756.41
2018-07-15T13:37:14.467Z,96753.58
2018-07-15T13:39:43.693Z,96755.80
2018-07-15T13:42:12.875Z,96751.00
2018-07-15T13:44:42.064Z,96746.83
2018-07-15T13:47:11.723Z,96745.05
2018-07-15T13:49:41.278Z,96740.42
2018-07-15T13:52:11.191Z,96736.55
2018-07-15T13:54:40.393Z,96730.66
2018-07-15T13:57:09.567Z,96733.89
2018-07-15T13:59:38.815Z,96735.49
2018-07-15T14:02:08.043Z,96717.70
2018-07-15T14:04:37.251Z,96720.37
2018-07-15T14:07:06.407Z,96740.45
2018-07-15T14:09:35.615Z,96725.19
2018-07-15T14:12:04.915Z,96708.61
2018-07-15T14:14:34.243Z,96716.31
2018-07-15T14:17:03.616Z,96709.12
2018-07-15T14:19:32.823Z,96712.14
2018-07-15T14:22:02.423Z,96704.52
2018-07-15T14:24:32.136Z,96706.23
2018-07-15T14:27:01.300Z,96709.30
2018-07-15T14:29:30.451Z,96713.61
2018-07-15T14:31:59.624Z,96710.50
2018-07-15T14:34:28.823Z,96708.02
2018-07-15T14:36:58.103Z,96716.17
2018-07-15T14:39:40.003Z,96717.95
2018-07-15T14:42:09.287Z,96712.91
2018-07-15T14:44:39.561Z,96712.05
2018-07-15T14:47:09.396Z,96710.78
2018-07-15T14:49:38.595Z,96713.67
2018-07-15T14:52:07.774Z,96707.46
2018-07-15T14:54:36.992Z,96709.84
2018-07-15T14:57:06.813Z,96705.61
2018-07-15T14:59:36.154Z,96704.58
2018-07-15T15:02:05.431Z,96699.08
2018-07-15T15:04:34.577Z,96703.56
2018-07-15T15:07:03.724Z,96701.84
2018-07-15T15:09:32.903Z,96706.67
2018-07-15T15:12:02.073Z,96705.95
2018-07-15T15:14:31.228Z,96707.83
2018-07-15T15:17:00.375Z,96707.30
2018-07-15T15:19:29.539Z,96721.04
2018-07-15T15:21:58.708Z,96721.92
2018-07-15T15:24:28.192Z,96723.41
2018-07-15T15:26:57.412Z,96726.06
2018-07-15T15:29:26.631Z,96728.84
2018-07-15T15:31:56.004Z,96725.11
2018-07-15T15:34:25.214Z,96723.55
2018-07-15T15:36:54.411Z,96717.42
2018-07-15T15:39:23.615Z,96721.70
2018-07-15T15:41:53.501Z,96715.30
2018-07-15T15:44:22.691Z,96719.47
2018-07-15T15:46:52.072Z,96720.90
2018-07-15T15:49:21.663Z,96721.52
2018-07-15T15:51:50.955Z,96717.38
2018-07-15T15:54:20.167Z,96722.78
2018-07-15T15:56:49.349Z,96712.71
2018-07-15T15:59:18.531Z,96713.48
2018-07-15T16:01:47.704Z,96713.95
2018-07-15T16:04:17.227Z,96711.02
2018-07-15T16:06:47.645Z,96711.77
2018-07-15T16:09:16.858Z,96713.30
2018-07-15T16:11:46.023Z,96701.03
2018-07-15T16:14:15.191Z,96699.16
2018-07-15T16:16:44.739Z,96696.00
2018-07-15T16:19:13.827Z,96699.74
2018-07-15T16:21:42.991Z,96689.35
2018-07-15T16:24:12.175Z,96689.73
2018-07-15T16:26:41.354Z,96686.97
2018-07-15T16:29:10.883Z,96686.88
2018-07-15T16:31:40.044Z,96689.70
2018-07-15T16:34:09.532Z,96692.18
2018-07-15T16:36:38.667Z,96691.16
2018-07-15T16:39:08.127Z,96687.56
2018-07-15T16:41:37.703Z,96683.77
2018-07-15T16:44:06.917Z,96685.43
2018-07-15T16:46:36.062Z,96689.53
2018-07-15T16:49:05.432Z,96695.58
2018-07-15T16:51:34.632Z,96704.47
2018-07-15T16:54:03.831Z,96713.28
2018-07-15T16:56:33.123Z,96715.03
2018-07-15T16:59:02.307Z,96708.58
2018-07-15T17:01:31.511Z,96701.44
2018-07-15T17:04:00.695Z,96701.89
2018-07-15T17:06:29.984Z,96688.41
2018-07-15T17:08:59.195Z,96689.08
2018-07-15T17:11:28.696Z,96691.78
2018-07-15T17:13:58.152Z,96691.83
2018-07-15T17:16:27.339Z,96694.81
2018-07-15T17:18:56.618Z,96705.00
2018-07-15T17:21:25.843Z,96700.23
2018-07-15T17:23:55.024Z,96699.74
2018-07-15T17:26:25.150Z,96706.67
2018-07-15T17:28:54.885Z,96706.28
2018-07-15T17:31:24.074Z,96719.31
2018-07-15T17:33:53.259Z,96714.30
2018-07-15T17:36:22.458Z,96716.39
2018-07-15T17:38:51.973Z,96713.16
2018-07-15T17:41:21.287Z,96713.83
2018-07-15T17:43:50.733Z,96718.13
2018-07-15T17:46:19.948Z,96723.16
2018-07-15T17:48:49.116Z,96721.53
2018-07-15T17:51:18.295Z,96722.80
2018-07-15T17:53:47.479Z,96719.05
2018-07-15T17:56:16.695Z,96729.27
2018-07-15T17:58:45.965Z,96720.56
2018-07-15T18:01:15.835Z,96720.58
2018-07-15T18:03:45.016Z,96720.68
2018-07-15T18:06:14.902Z,96732.45
2018-07-15T18:08:44.219Z,96724.13
2018-07-15T18:11:13.681Z,96724.92
2018-07-15T18:13:42.859Z,96722.09
2018-07-15T18:16:12.101Z,96716.84
2018-07-15T18:18:41.327Z,96717.38
2018-07-15T18:21:10.799Z,96711.23
2018-07-15T18:23:39.951Z,96719.45
2018-07-15T18:26:09.195Z,96716.37
2018-07-15T18:28:38.400Z,96720.16
2018-07-15T18:31:08.841Z,96719.47
2018-07-15T18:33:39.365Z,96717.97
2018-07-15T18:36:09.171Z,96726.41
2018-07-15T18:38:39.368Z,96724.23
2018-07-15T18:41:09.932Z,96720.36
2018-07-15T18:43:40.483Z,96727.55
2018-07-15T18:46:10.664Z,96716.04
2018-07-15T18:48:41.231Z,96711.23
2018-07-15T18:51:10.545Z,96716.71
2018-07-15T18:53:41.208Z,96721.19
2018-07-15T18:56:10.639Z,96719.02
2018-07-15T18:58:39.825Z,96721.41
2018-07-15T19:01:09.007Z,96723.02
2018-07-15T19:03:38.310Z,96721.85
2018-07-15T19:06:08.215Z,96725.86
2018-07-15T19:08:37.959Z,96726.09
2018-07-15T19:11:08.872Z,96724.48
2018-07-15T19:13:38.593Z,96723.87
2018-07-15T19:16:08.930Z,96722.42
2018-07-15T19:18:39.106Z,96727.97
2018-07-15T19:21:09.149Z,96729.00
2018-07-15T19:23:39.082Z,96735.61
2018-07-15T19:26:08.784Z,96731.25
2018-07-15T19:28:38.204Z,96732.92
2018-07-15T19:31:07.655Z,96736.33
2018-07-15T19:33:37.954Z,96739.18
2018-07-15T19:36:07.509Z,96733.38
2018-07-15T19:38:38.041Z,96742.16
2018-07-15T19:41:07.882Z,96738.36
2018-07-15T19:43:38.128Z,96747.23
2018-07-15T19:46:08.231Z,96755.71
2018-07-15T19:48:37.827Z,96760.45
2018-07-15T19:51:08.810Z,96765.55
2018-07-15T19:53:38.332Z,96766.00
2018-07-15T19:56:09.681Z,96769.48
2018-07-15T19:58:39.535Z,96776.24
2018-07-15T20:01:09.723Z,96777.86
2018-07-15T20:03:39.596Z,96780.95
2018-07-15T20:06:10.224Z,96785.13
2018-07-15T20:08:39.503Z,96801.53
2018-07-15T20:11:09.000Z,96801.36
2018-07-15T20:13:38.207Z,96798.55
2018-07-15T20:16:07.491Z,96803.17
2018-07-15T20:18:38.144Z,96801.53
2018-07-15T20:21:07.826Z,96814.74
2018-07-15T20:23:37.828Z,96808.17
2018-07-15T20:26:07.901Z,96817.07
2018-07-15T20:28:37.487Z,96815.89
2018-07-15T20:31:07.711Z,96816.27
2018-07-15T20:33:38.622Z,96809.78
2018-07-15T20:36:09.180Z,96807.86
2018-07-15T20:38:38.954Z,96813.47
2018-07-15T20:41:08.980Z,96811.06
2018-07-15T20:43:39.291Z,96812.80
2018-07-15T20:46:10.723Z,96810.42
2018-07-15T20:48:41.266Z,96811.53
2018-07-15T20:51:11.462Z,96804.83
2018-07-15T20:53:41.606Z,96803.30
2018-07-15T20:56:11.454Z,96807.95
2018-07-15T20:58:40.615Z,96800.80
2018-07-15T21:01:09.815Z,96796.01
2018-07-15T21:03:39.022Z,96798.17
2018-07-15T21:06:08.207Z,96788.55
2018-07-15T21:08:37.393Z,96788.64
2018-07-15T21:11:06.820Z,96791.73
2018-07-15T21:13:36.412Z,96794.21
2018-07-15T21:16:05.755Z,96794.88
2018-07-15T21:18:34.947Z,96796.55
2018-07-15T21:21:04.419Z,96803.46
2018-07-15T21:23:33.719Z,96805.94
2018-07-15T21:26:02.936Z,96804.97
2018-07-15T21:28:32.120Z,96804.63
2018-07-15T21:31:01.324Z,96800.61
2018-07-15T21:33:30.503Z,96796.00
2018-07-15T21:35:59.683Z,96789.13
2018-07-15T21:38:28.850Z,96791.56
2018-07-15T21:40:58.124Z,96792.80
2018-07-15T21:43:27.355Z,96796.20
2018-07-15T21:45:56.859Z,96794.32
2018-07-15T21:48:26.014Z,96796.02
2018-07-15T21:50:55.192Z,96804.19
2018-07-15T21:53:25.453Z,96805.55
2018-07-15T21:55:54.647Z,96807.02
2018-07-15T21:58:23.819Z,96805.08
2018-07-15T22:00:54.248Z,96804.42
2018-07-15T22:03:24.279Z,96804.31
2018-07-15T22:05:53.516Z,96801.45
2018-07-15T22:08:34.140Z,96800.55
2018-07-15T22:11:03.535Z,96807.05
2018-07-15T22:13:32.764Z,96797.36
2018-07-15T22:16:01.943Z,96799.86
2018-07-15T22:18:31.150Z,96802.97
2018-07-15T22:21:00.415Z,96790.59
2018-07-15T22:23:29.595Z,96797.70
2018-07-15T22:25:58.759Z,96796.92
2018-07-15T22:28:28.160Z,96797.13
2018-07-15T22:30:57.943Z,96792.45
2018-07-15T22:33:27.187Z,96796.41
2018-07-15T22:35:56.348Z,96789.23
2018-07-15T22:38:26.067Z,96793.73
2018-07-15T22:40:55.251Z,96799.64
2018-07-15T22:43:24.667Z,96791.49
2018-07-15T22:45:53.814Z,96791.87
2018-07-15T22:48:23.011Z,96787.34
2018-07-15T22:50:52.199Z,96790.52
2018-07-15T22:53:21.384Z,96788.14
2018-07-15T22:55:50.535Z,96790.43
2018-07-15T22:58:19.723Z,96789.75
2018-07-15T23:00:49.187Z,96786.78
2018-07-15T23:03:18.366Z,96787.11
2018-07-15T23:06:27.918Z,96786.30
2018-07-15T23:08:57.099Z,96795.31
2018-07-15T23:11:26.255Z,96790.81
2018-07-15T23:13:55.447Z,96790.13
2018-07-15T23:16:24.616Z,96793.70
2018-07-15T23:18:54.131Z,96798.66
2018-07-15T23:21:23.283Z,96791.87
2018-07-15T23:23:52.488Z,96788.77
2018-07-15T23:26:21.659Z,96781.17
2018-07-15T23:28:51.782Z,96780.99
2018-07-15T23:31:20.951Z,96778.41
2018-07-15T23:33:50.117Z,96784.33
2018-07-15T23:36:19.403Z,96781.10
2018-07-15T23:38:48.570Z,96781.79
2018-07-15T23:41:17.734Z,96778.82
2018-07-15T23:43:47.180Z,96773.80
2018-07-15T23:46:16.351Z,96775.42
2018-07-15T23:48:45.542Z,96776.92
2018-07-15T23:51:14.716Z,96773.30
2018-07-15T23:53:43.878Z,96771.69
2018-07-15T23:56:13.099Z,96770.00
2018-07-15T23:58:42.812Z,96776.27
